Time;durP1;ratioP1;P1;durP2;ratioP2;P2;SDS_P1;SDS_P2;PMS_P1;PMS_P2;Temp;Humidity;BMP_temperature;BMP_pressure;BME280_temperature;BME280_humidity;BME280_pressure;Samples;Min_cycle;Max_cycle;Signal;HPM_P1;HPM_P2
2020/12/18 00:01:20;;;;;;;26.15;14.48;;;4.90;99.80;;;;;;4917716;28;20232;-86
2020/12/18 00:03:47;;;;;;;24.38;14.68;;;5.00;99.80;;;;;;4929625;28;20229;-85
2020/12/18 00:06:16;;;;;;;21.80;13.25;;;5.10;99.80;;;;;;4936337;28;20265;-85
2020/12/18 00:08:43;;;;;;;24.10;14.98;;;5.10;99.80;;;;;;4945026;28;20255;-85
2020/12/18 00:11:10;;;;;;;22.27;13.15;;;5.20;99.80;;;;;;4956101;28;20254;-85
2020/12/18 00:13:37;;;;;;;22.33;14.23;;;5.20;99.80;;;;;;4919661;28;20310;-86
2020/12/18 00:16:05;;;;;;;22.05;14.95;;;5.30;99.80;;;;;;4935095;28;20243;-85
2020/12/18 00:18:32;;;;;;;23.02;13.75;;;5.30;99.80;;;;;;4928873;28;20223;-88
2020/12/18 00:20:59;;;;;;;23.65;13.73;;;5.30;99.80;;;;;;4945294;28;20231;-88
2020/12/18 00:23:26;;;;;;;24.38;13.70;;;5.40;99.80;;;;;;4954369;28;20240;-88
2020/12/18 00:25:53;;;;;;;23.33;13.30;;;5.40;99.80;;;;;;4961307;28;21176;-87
2020/12/18 00:28:20;;;;;;;24.75;14.73;;;5.40;99.80;;;;;;4967106;28;20225;-86
2020/12/18 00:30:47;;;;;;;25.73;13.35;;;5.40;99.80;;;;;;4949404;28;20245;-87
2020/12/18 00:33:15;;;;;;;25.70;14.77;;;5.40;99.80;;;;;;4930883;28;20731;-87
2020/12/18 00:35:42;;;;;;;19.67;13.75;;;5.50;99.80;;;;;;4937537;28;20234;-86
2020/12/18 00:38:09;;;;;;;37.75;13.82;;;5.40;99.80;;;;;;4939089;28;20318;-86
2020/12/18 00:40:36;;;;;;;43.60;13.38;;;5.30;99.80;;;;;;4963852;28;20241;-86
2020/12/18 00:43:03;;;;;;;33.13;12.75;;;5.10;99.80;;;;;;4942794;28;20227;-86
2020/12/18 00:45:30;;;;;;;29.02;12.93;;;4.90;99.80;;;;;;4939571;28;20249;-86
2020/12/18 00:47:57;;;;;;;17.35;12.70;;;4.80;99.80;;;;;;4923567;28;20789;-86
2020/12/18 00:50:25;;;;;;;18.27;12.80;;;4.60;99.80;;;;;;4929028;28;20658;-86
2020/12/18 00:52:52;;;;;;;33.17;14.68;;;4.50;99.80;;;;;;4936471;28;20223;-85
2020/12/18 00:55:19;;;;;;;19.40;12.95;;;4.40;99.80;;;;;;4963190;28;20247;-86
2020/12/18 00:57:47;;;;;;;22.50;13.02;;;4.40;99.80;;;;;;4966797;28;20291;-86
2020/12/18 01:00:14;;;;;;;22.60;13.73;;;4.30;99.80;;;;;;4967521;28;20686;-86
2020/12/18 01:02:41;;;;;;;18.90;13.77;;;4.20;99.80;;;;;;4954457;28;20234;-87
2020/12/18 01:05:08;;;;;;;20.95;14.40;;;4.20;99.80;;;;;;4956421;28;20615;-87
2020/12/18 01:07:36;;;;;;;22.00;13.82;;;4.20;99.80;;;;;;4947095;28;20239;-87
2020/12/18 01:10:03;;;;;;;21.85;14.35;;;4.20;99.80;;;;;;4966079;28;20239;-86
2020/12/18 01:12:30;;;;;;;22.67;14.27;;;4.20;99.80;;;;;;4944485;28;20221;-86
2020/12/18 01:14:57;;;;;;;26.27;14.32;;;4.20;99.80;;;;;;4955246;28;20228;-86
2020/12/18 01:17:24;;;;;;;24.20;14.10;;;4.30;99.80;;;;;;4934620;28;20761;-86
2020/12/18 01:19:51;;;;;;;25.77;15.35;;;4.30;99.80;;;;;;4933278;28;20239;-86
2020/12/18 01:22:18;;;;;;;19.33;13.52;;;4.30;99.80;;;;;;4939884;28;20700;-86
2020/12/18 01:24:48;;;;;;;24.02;13.85;;;4.30;99.80;;;;;;4943405;28;20224;-86
2020/12/18 01:27:15;;;;;;;22.30;14.98;;;4.30;99.80;;;;;;4930374;28;20729;-86
2020/12/18 01:29:41;;;;;;;23.45;15.30;;;4.30;99.80;;;;;;4941996;28;20239;-86
2020/12/18 01:32:08;;;;;;;24.13;14.15;;;4.30;99.80;;;;;;4922255;28;20243;-86
2020/12/18 01:34:35;;;;;;;24.92;15.45;;;4.30;99.80;;;;;;4913053;28;20237;-86
2020/12/18 01:37:02;;;;;;;23.63;15.15;;;4.30;99.80;;;;;;4934619;28;20252;-86
2020/12/18 01:39:29;;;;;;;27.15;15.30;;;4.30;99.80;;;;;;4964086;28;20240;-86
2020/12/18 01:41:57;;;;;;;27.00;16.25;;;4.30;99.80;;;;;;4959662;28;20228;-86
2020/12/18 01:44:24;;;;;;;23.05;15.45;;;4.40;99.80;;;;;;4961090;28;20238;-87
2020/12/18 01:46:52;;;;;;;27.23;16.08;;;4.50;99.80;;;;;;4943181;28;20226;-88
2020/12/18 01:49:19;;;;;;;21.83;15.68;;;4.60;99.80;;;;;;4922566;28;20252;-87
2020/12/18 01:51:51;;;;;;;22.00;14.40;;;4.80;99.80;;;;;;4933532;28;20542;-86
2020/12/18 01:54:19;;;;;;;26.75;16.38;;;4.80;99.80;;;;;;4939001;28;20231;-86
2020/12/18 01:56:48;;;;;;;26.80;15.88;;;4.90;99.80;;;;;;4893673;28;20807;-86
2020/12/18 01:59:16;;;;;;;26.15;16.23;;;4.90;99.80;;;;;;4899894;28;20737;-86
2020/12/18 02:01:44;;;;;;;24.98;16.00;;;5.00;99.80;;;;;;4910503;28;20280;-86
2020/12/18 02:04:11;;;;;;;23.60;15.45;;;5.00;99.80;;;;;;4929076;28;20253;-86
2020/12/18 02:06:40;;;;;;;22.50;15.00;;;5.00;99.80;;;;;;4906383;28;20241;-88
2020/12/18 02:09:07;;;;;;;23.33;14.85;;;5.10;99.80;;;;;;4951123;28;20232;-84
2020/12/18 02:11:34;;;;;;;22.77;15.05;;;5.00;99.80;;;;;;4958237;28;20236;-85
2020/12/18 02:14:01;;;;;;;17.48;12.40;;;5.00;99.80;;;;;;4960077;28;20708;-84
2020/12/18 02:16:29;;;;;;;23.58;14.20;;;5.10;99.80;;;;;;4954457;28;20235;-86
2020/12/18 02:18:56;;;;;;;26.95;17.08;;;5.10;99.80;;;;;;4948399;28;20252;-87
2020/12/18 02:21:23;;;;;;;24.90;14.07;;;5.20;99.80;;;;;;4936174;28;20221;-86
2020/12/18 02:23:51;;;;;;;23.88;14.65;;;5.10;99.80;;;;;;4952327;28;20232;-86
2020/12/18 02:26:19;;;;;;;21.80;14.98;;;5.20;99.80;;;;;;4946135;28;20253;-86
2020/12/18 02:28:47;;;;;;;23.70;14.27;;;5.20;99.80;;;;;;4917795;28;20296;-86
2020/12/18 02:31:14;;;;;;;22.88;14.57;;;5.10;99.80;;;;;;4920175;28;20237;-87
2020/12/18 02:33:42;;;;;;;26.48;15.52;;;5.20;99.80;;;;;;4938122;28;20715;-87
2020/12/18 02:36:10;;;;;;;21.38;14.60;;;5.10;99.80;;;;;;4926134;28;20242;-87
2020/12/18 02:38:37;;;;;;;25.55;15.30;;;5.10;99.80;;;;;;4953256;28;20314;-86
2020/12/18 02:41:07;;;;;;;21.70;14.80;;;5.10;99.80;;;;;;4961543;28;20986;-87
2020/12/18 02:43:35;;;;;;;21.25;14.00;;;5.00;99.80;;;;;;4963597;28;20711;-86
2020/12/18 02:46:02;;;;;;;22.23;13.77;;;5.00;99.80;;;;;;4960660;28;20231;-86
2020/12/18 02:48:29;;;;;;;21.50;13.80;;;5.00;99.80;;;;;;4957881;28;20234;-86
2020/12/18 02:50:56;;;;;;;25.40;15.38;;;5.00;99.80;;;;;;4928461;28;20236;-86
2020/12/18 02:53:23;;;;;;;23.05;14.98;;;5.10;99.80;;;;;;4943097;28;20233;-86
2020/12/18 02:55:50;;;;;;;25.95;15.48;;;5.10;99.80;;;;;;4960870;28;20230;-86
2020/12/18 02:58:17;;;;;;;23.35;14.75;;;5.10;99.80;;;;;;4962151;28;20235;-86
2020/12/18 03:00:46;;;;;;;20.83;14.73;;;5.20;99.80;;;;;;4931463;28;20710;-86
2020/12/18 03:03:13;;;;;;;20.58;13.85;;;5.20;99.80;;;;;;4958611;28;20556;-86
2020/12/18 03:05:40;;;;;;;25.70;15.20;;;5.20;99.80;;;;;;4966612;28;20579;-86
2020/12/18 03:08:09;;;;;;;28.98;16.60;;;5.20;99.80;;;;;;4968953;28;20222;-86
2020/12/18 03:10:36;;;;;;;22.17;14.23;;;5.30;99.80;;;;;;4964526;28;20199;-86
2020/12/18 03:13:03;;;;;;;26.80;16.17;;;5.30;99.80;;;;;;4965748;28;20215;-86
2020/12/18 03:15:31;;;;;;;19.55;13.35;;;5.40;99.80;;;;;;4939875;28;20646;-87
2020/12/18 03:17:58;;;;;;;25.75;16.25;;;5.40;99.80;;;;;;4960099;28;20916;-88
2020/12/18 03:20:25;;;;;;;22.48;14.57;;;5.40;99.80;;;;;;4959394;28;20246;-85
2020/12/18 03:22:52;;;;;;;21.20;14.57;;;5.40;99.80;;;;;;4957053;28;20237;-87
2020/12/18 03:25:22;;;;;;;24.17;15.23;;;5.40;99.80;;;;;;4964377;28;20225;-86
2020/12/18 03:27:52;;;;;;;22.83;14.45;;;5.40;99.80;;;;;;4946161;28;20607;-87
2020/12/18 03:30:19;;;;;;;26.95;15.90;;;5.50;99.80;;;;;;4952513;28;20739;-86
2020/12/18 03:32:46;;;;;;;25.90;16.00;;;5.50;99.80;;;;;;4961353;28;20338;-86
2020/12/18 03:35:14;;;;;;;24.52;15.60;;;5.50;99.80;;;;;;4958245;28;20221;-86
2020/12/18 03:37:42;;;;;;;23.02;14.85;;;5.50;99.80;;;;;;4961367;28;20230;-86
2020/12/18 03:40:09;;;;;;;23.23;15.35;;;5.50;99.80;;;;;;4963224;28;20237;-86
2020/12/18 03:42:36;;;;;;;27.55;15.80;;;5.50;99.80;;;;;;4964982;28;20233;-86
2020/12/18 03:45:04;;;;;;;30.23;16.80;;;5.50;99.80;;;;;;4960967;28;20232;-86
2020/12/18 03:47:31;;;;;;;23.55;15.07;;;5.50;99.80;;;;;;4961102;28;20230;-86
2020/12/18 03:49:58;;;;;;;27.25;16.88;;;5.50;99.80;;;;;;4946675;28;20225;-86
2020/12/18 03:52:26;;;;;;;24.90;15.68;;;5.50;99.80;;;;;;4928716;28;20320;-86
2020/12/18 03:54:52;;;;;;;34.63;16.35;;;5.50;99.80;;;;;;4964734;28;20228;-86
2020/12/18 03:57:19;;;;;;;33.83;16.60;;;5.60;99.80;;;;;;4936567;28;20788;-85
2020/12/18 03:59:46;;;;;;;26.38;15.23;;;5.60;99.80;;;;;;4907013;28;20252;-86
2020/12/18 04:02:13;;;;;;;27.70;17.00;;;5.60;99.80;;;;;;4922116;28;20233;-87
2020/12/18 04:04:40;;;;;;;34.30;16.70;;;5.70;99.80;;;;;;4928750;28;20233;-86
2020/12/18 04:07:07;;;;;;;35.03;18.05;;;5.70;99.80;;;;;;4933686;28;20235;-86
2020/12/18 04:09:35;;;;;;;51.60;18.38;;;5.70;99.80;;;;;;4969620;28;20256;-86
2020/12/18 04:12:02;;;;;;;44.72;17.90;;;5.70;99.80;;;;;;4965312;28;20316;-86
2020/12/18 04:14:29;;;;;;;33.67;16.70;;;5.70;99.80;;;;;;4966146;28;20234;-85
2020/12/18 04:16:56;;;;;;;28.45;16.52;;;5.70;99.80;;;;;;4963413;28;20248;-86
2020/12/18 04:19:23;;;;;;;49.38;18.50;;;5.70;99.80;;;;;;4965010;28;20235;-86
2020/12/18 04:21:50;;;;;;;36.65;17.50;;;5.70;99.80;;;;;;4966899;28;20875;-85
2020/12/18 04:24:17;;;;;;;40.35;17.85;;;5.80;99.80;;;;;;4968793;28;20740;-86
2020/12/18 04:26:45;;;;;;;41.05;18.08;;;5.80;99.80;;;;;;4966447;28;20259;-86
2020/12/18 04:29:12;;;;;;;35.30;18.13;;;5.80;99.80;;;;;;4965871;28;20259;-85
2020/12/18 04:31:39;;;;;;;42.28;18.08;;;5.80;99.80;;;;;;4967819;28;20231;-85
2020/12/18 04:34:06;;;;;;;33.72;17.40;;;5.80;99.80;;;;;;4962135;28;20223;-86
2020/12/18 04:36:35;;;;;;;53.10;18.00;;;5.80;99.80;;;;;;4969203;28;20233;-86
2020/12/18 04:39:03;;;;;;;35.25;17.67;;;5.80;99.80;;;;;;4958121;28;20233;-85
2020/12/18 04:41:31;;;;;;;57.17;19.00;;;5.80;99.80;;;;;;4964247;28;20704;-86
2020/12/18 04:43:59;;;;;;;33.88;17.20;;;5.80;99.80;;;;;;4966498;28;20236;-87
2020/12/18 04:46:29;;;;;;;38.10;16.42;;;5.80;99.80;;;;;;4962034;28;20239;-86
2020/12/18 04:48:56;;;;;;;37.58;16.65;;;5.80;99.80;;;;;;4965709;28;20234;-86
2020/12/18 04:51:25;;;;;;;47.88;18.00;;;5.80;99.80;;;;;;4967989;28;20238;-86
2020/12/18 04:53:54;;;;;;;38.15;17.58;;;5.80;99.80;;;;;;4968503;28;20244;-86
2020/12/18 04:56:23;;;;;;;29.58;17.63;;;5.80;99.80;;;;;;4962972;28;20242;-86
2020/12/18 04:58:52;;;;;;;31.98;17.92;;;5.70;99.80;;;;;;4963800;28;20232;-85
2020/12/18 05:01:23;;;;;;;44.08;18.25;;;5.80;99.80;;;;;;4964683;28;20233;-86
2020/12/18 05:03:50;;;;;;;32.20;16.90;;;5.70;99.80;;;;;;4959816;28;20241;-86
2020/12/18 05:06:18;;;;;;;63.00;18.40;;;5.70;99.80;;;;;;4965738;28;20238;-85
2020/12/18 05:08:46;;;;;;;57.42;18.92;;;5.70;99.80;;;;;;4937781;28;20252;-86
2020/12/18 05:11:17;;;;;;;40.65;19.52;;;5.70;99.80;;;;;;4904615;28;20629;-86
2020/12/18 05:13:44;;;;;;;84.43;21.63;;;5.60;99.80;;;;;;4895936;28;20266;-85
2020/12/18 05:16:11;;;;;;;44.13;18.08;;;5.60;99.80;;;;;;4920412;28;20249;-86
2020/12/18 05:18:40;;;;;;;138.70;25.60;;;5.60;99.80;;;;;;4922321;28;20234;-86
2020/12/18 05:21:07;;;;;;;64.35;17.02;;;5.60;99.80;;;;;;4894166;28;20229;-85
2020/12/18 05:23:38;;;;;;;50.55;17.75;;;5.60;99.80;;;;;;4953188;28;20231;-86
2020/12/18 05:26:06;;;;;;;80.65;21.23;;;5.60;99.80;;;;;;4964953;28;20225;-85
2020/12/18 05:28:39;;;;;;;27.02;15.07;;;5.60;99.80;;;;;;4966869;28;20238;-85
2020/12/18 05:31:10;;;;;;;36.47;18.00;;;5.60;99.80;;;;;;4966284;28;20880;-85
2020/12/18 05:33:37;;;;;;;51.10;18.25;;;5.50;99.80;;;;;;4965831;28;20218;-86
2020/12/18 05:36:05;;;;;;;57.78;17.85;;;5.60;99.80;;;;;;4964982;28;20248;-87
2020/12/18 05:38:34;;;;;;;81.47;18.35;;;5.60;99.80;;;;;;4960356;28;20234;-87
2020/12/18 05:41:02;;;;;;;66.50;18.52;;;5.60;99.80;;;;;;4924441;28;20610;-86
2020/12/18 05:43:44;;;;;;;100.32;20.48;;;5.60;99.80;;;;;;4927577;28;20230;-86
2020/12/18 05:46:21;;;;;;;46.20;17.00;;;5.60;99.80;;;;;;4936228;28;20245;-86
2020/12/18 05:49:00;;;;;;;92.68;17.67;;;5.60;99.80;;;;;;4928642;28;20674;-87
2020/12/18 05:51:30;;;;;;;66.78;18.27;;;5.50;99.80;;;;;;4937530;28;20685;-87
2020/12/18 05:54:15;;;;;;;47.13;16.73;;;5.50;99.80;;;;;;4962894;28;20237;-87
2020/12/18 05:56:44;;;;;;;40.28;16.80;;;5.50;99.80;;;;;;4965331;28;20235;-86
2020/12/18 05:59:13;;;;;;;60.85;18.23;;;5.50;99.80;;;;;;4965613;28;20616;-86
2020/12/18 06:01:44;;;;;;;105.43;19.35;;;5.50;99.80;;;;;;4963921;28;20233;-85
2020/12/18 06:04:21;;;;;;;89.18;17.75;;;5.50;99.80;;;;;;4960497;28;20262;-86
2020/12/18 06:06:51;;;;;;;40.38;16.73;;;5.50;99.80;;;;;;4963091;28;20616;-86
2020/12/18 06:09:19;;;;;;;57.45;18.77;;;5.60;99.80;;;;;;4966551;28;20703;-86
2020/12/18 06:11:47;;;;;;;48.92;17.10;;;5.50;99.80;;;;;;4951466;28;20250;-86
2020/12/18 06:14:18;;;;;;;32.13;16.65;;;5.50;99.80;;;;;;4916704;28;20236;-85
2020/12/18 06:16:47;;;;;;;69.38;19.73;;;5.60;99.80;;;;;;4930456;28;20243;-86
2020/12/18 06:19:16;;;;;;;48.08;18.52;;;5.60;99.80;;;;;;4930829;28;21250;-85
2020/12/18 06:21:55;;;;;;;68.32;18.55;;;5.60;99.80;;;;;;4941363;28;20242;-86
2020/12/18 06:24:41;;;;;;;51.38;18.15;;;5.60;99.80;;;;;;4964519;28;20235;-86
2020/12/18 06:27:13;;;;;;;38.72;17.02;;;5.60;99.80;;;;;;4962546;28;20696;-86
2020/12/18 06:29:40;;;;;;;76.57;19.10;;;5.60;99.80;;;;;;4959700;28;20248;-85
2020/12/18 06:32:21;;;;;;;31.15;17.05;;;5.60;99.80;;;;;;4964417;28;20238;-85
2020/12/18 06:34:48;;;;;;;56.55;18.58;;;5.70;99.80;;;;;;4964069;28;20231;-86
2020/12/18 06:37:32;;;;;;;58.17;19.45;;;5.70;99.80;;;;;;4965800;28;20240;-86
2020/12/18 06:40:00;;;;;;;54.63;17.50;;;5.70;99.80;;;;;;4964430;28;20637;-85
2020/12/18 06:42:29;;;;;;;79.97;20.42;;;5.70;99.80;;;;;;4946547;28;20719;-86
2020/12/18 06:44:56;;;;;;;79.47;19.92;;;5.70;99.80;;;;;;4930513;28;20374;-87
2020/12/18 06:47:31;;;;;;;41.45;17.30;;;5.80;99.80;;;;;;4919287;28;20235;-86
2020/12/18 06:50:16;;;;;;;66.20;18.65;;;5.80;99.80;;;;;;4911089;28;20272;-86
2020/12/18 06:52:50;;;;;;;35.90;17.92;;;5.80;99.80;;;;;;4918713;28;20231;-86
2020/12/18 06:55:34;;;;;;;64.57;18.75;;;5.80;99.80;;;;;;4917163;28;20235;-86
2020/12/18 06:58:17;;;;;;;50.83;16.50;;;5.80;99.80;;;;;;4922091;28;20233;-84
2020/12/18 07:00:53;;;;;;;43.30;18.20;;;5.80;99.80;;;;;;4922486;28;20236;-84
2020/12/18 07:03:42;;;;;;;57.85;15.77;;;5.80;99.80;;;;;;4918088;28;20223;-83
2020/12/18 07:06:12;;;;;;;31.40;16.23;;;5.80;99.80;;;;;;4912362;28;20242;-84
2020/12/18 07:08:41;;;;;;;56.10;16.20;;;5.80;99.80;;;;;;4939142;28;20261;-83
2020/12/18 07:11:10;;;;;;;48.42;16.42;;;5.80;99.80;;;;;;4964969;28;20245;-83
2020/12/18 07:13:41;;;;;;;53.65;17.50;;;5.80;99.80;;;;;;4955537;28;20233;-83
2020/12/18 07:16:10;;;;;;;83.05;19.70;;;5.80;99.80;;;;;;4902010;28;20239;-83
2020/12/18 07:18:39;;;;;;;54.50;17.10;;;5.80;99.80;;;;;;4905924;28;20725;-84
2020/12/18 07:21:07;;;;;;;41.83;16.60;;;5.80;99.80;;;;;;4935499;28;20233;-83
2020/12/18 07:23:36;;;;;;;69.75;16.35;;;5.80;99.80;;;;;;4935052;28;20226;-83
2020/12/18 07:26:05;;;;;;;46.85;15.55;;;5.80;99.80;;;;;;4935091;28;20338;-84
2020/12/18 07:28:37;;;;;;;77.72;15.20;;;5.80;99.80;;;;;;4934463;28;20234;-85
2020/12/18 07:31:05;;;;;;;69.40;14.93;;;5.80;99.80;;;;;;4931783;28;20226;-83
2020/12/18 07:33:32;;;;;;;26.50;12.27;;;5.80;99.80;;;;;;4940415;28;20289;-83
2020/12/18 07:36:02;;;;;;;55.97;15.10;;;5.80;99.80;;;;;;4942349;28;20231;-83
2020/12/18 07:38:32;;;;;;;60.45;14.20;;;5.70;99.80;;;;;;4962709;28;20337;-83
2020/12/18 07:41:01;;;;;;;55.22;15.10;;;5.70;99.80;;;;;;4961239;28;20230;-84
2020/12/18 07:43:31;;;;;;;74.15;16.23;;;5.70;99.80;;;;;;4964607;28;20232;-85
2020/12/18 07:46:02;;;;;;;40.90;14.63;;;5.60;99.80;;;;;;4961504;28;20235;-85
2020/12/18 07:48:30;;;;;;;71.40;14.77;;;5.60;99.80;;;;;;4965802;28;20258;-84
2020/12/18 07:51:00;;;;;;;50.70;16.77;;;5.60;99.80;;;;;;4964320;28;20254;-84
2020/12/18 07:53:28;;;;;;;37.25;15.25;;;5.60;99.80;;;;;;4965745;28;20227;-84
2020/12/18 07:56:04;;;;;;;187.23;24.17;;;5.60;99.80;;;;;;4950742;28;20240;-83
2020/12/18 07:58:33;;;;;;;35.00;16.92;;;5.60;99.80;;;;;;4938268;28;20334;-83
2020/12/18 08:01:05;;;;;;;107.68;23.30;;;5.70;99.80;;;;;;4891129;28;20282;-83
2020/12/18 08:03:33;;;;;;;83.05;22.20;;;5.70;99.80;;;;;;4921414;28;20241;-84
2020/12/18 08:06:04;;;;;;;50.63;20.05;;;5.80;99.80;;;;;;4915712;28;20677;-83
2020/12/18 08:08:32;;;;;;;49.78;17.73;;;5.80;99.80;;;;;;4949811;28;20240;-83
2020/12/18 08:11:02;;;;;;;152.88;20.88;;;5.80;99.80;;;;;;4966523;28;20226;-83
2020/12/18 08:13:30;;;;;;;32.70;14.00;;;5.80;99.80;;;;;;4966064;28;20246;-83
2020/12/18 08:16:13;;;;;;;44.05;16.40;;;5.90;99.80;;;;;;4962820;28;20292;-84
2020/12/18 08:18:47;;;;;;;56.97;15.10;;;5.90;99.80;;;;;;4965761;28;20242;-83
2020/12/18 08:21:14;;;;;;;40.47;15.10;;;5.90;99.80;;;;;;4971939;28;20255;-84
2020/12/18 08:23:48;;;;;;;66.22;15.40;;;6.00;99.80;;;;;;4969415;28;20764;-84
2020/12/18 08:26:15;;;;;;;37.28;15.77;;;6.00;99.80;;;;;;4964449;28;20704;-84
2020/12/18 08:28:44;;;;;;;39.60;14.85;;;6.00;99.80;;;;;;4940315;28;20740;-85
2020/12/18 08:31:14;;;;;;;83.53;17.25;;;6.00;99.80;;;;;;4931791;28;20245;-86
2020/12/18 08:33:52;;;;;;;56.17;14.30;;;6.00;99.80;;;;;;4938903;28;20236;-86
2020/12/18 08:36:20;;;;;;;39.83;14.75;;;6.10;99.80;;;;;;4949616;28;20648;-86
2020/12/18 08:39:05;;;;;;;62.67;15.88;;;6.10;99.80;;;;;;4945536;28;20227;-86
2020/12/18 08:41:44;;;;;;;41.35;15.27;;;6.10;99.80;;;;;;4972147;28;20236;-86
2020/12/18 08:44:13;;;;;;;42.55;15.90;;;6.20;99.80;;;;;;4972936;28;20248;-86
2020/12/18 08:46:41;;;;;;;33.72;13.98;;;6.20;99.80;;;;;;4972997;28;20245;-87
2020/12/18 08:49:17;;;;;;;38.22;13.63;;;6.20;99.80;;;;;;4970683;28;20527;-86
2020/12/18 08:51:45;;;;;;;70.75;14.60;;;6.20;99.80;;;;;;4971568;28;20607;-85
2020/12/18 08:54:29;;;;;;;33.83;14.73;;;6.20;99.80;;;;;;4972251;28;20234;-86
2020/12/18 08:57:23;;;;;;;44.22;14.52;;;6.20;99.80;;;;;;4972600;28;20693;-86
2020/12/18 09:00:08;;;;;;;48.17;15.45;;;6.20;99.80;;;;;;4946186;28;20257;-86
2020/12/18 09:02:38;;;;;;;27.48;13.13;;;6.20;99.80;;;;;;4933320;28;20326;-86
2020/12/18 09:05:14;;;;;;;29.05;14.88;;;6.20;99.80;;;;;;4941680;28;20248;-86
2020/12/18 09:07:43;;;;;;;29.38;14.35;;;6.20;99.80;;;;;;4951316;28;20239;-86
2020/12/18 09:10:11;;;;;;;30.42;13.95;;;6.20;99.80;;;;;;4938653;28;20250;-86
2020/12/18 09:12:40;;;;;;;27.55;13.10;;;6.20;99.80;;;;;;4947277;28;20633;-86
2020/12/18 09:15:24;;;;;;;43.88;15.85;;;6.20;99.80;;;;;;4950486;28;20229;-86
2020/12/18 09:17:59;;;;;;;31.33;15.90;;;6.30;99.80;;;;;;4939017;28;20239;-86
2020/12/18 09:20:28;;;;;;;27.33;13.70;;;6.30;99.80;;;;;;4941404;28;20321;-85
2020/12/18 09:23:02;;;;;;;20.40;12.73;;;6.40;99.80;;;;;;4955944;28;20236;-86
2020/12/18 09:25:34;;;;;;;26.08;13.05;;;6.40;99.80;;;;;;4971395;28;20230;-86
2020/12/18 09:28:01;;;;;;;20.65;11.77;;;6.40;99.80;;;;;;4970326;28;20323;-86
2020/12/18 09:30:30;;;;;;;19.10;10.98;;;6.50;99.80;;;;;;4970693;28;20345;-85
2020/12/18 09:33:30;;;;;;;19.25;11.00;;;6.60;99.80;;;;;;4971928;28;20605;-86
2020/12/18 09:36:00;;;;;;;16.00;9.82;;;6.60;99.80;;;;;;4970158;28;20234;-86
2020/12/18 09:38:30;;;;;;;17.08;9.75;;;6.70;99.80;;;;;;4971006;28;20333;-86
2020/12/18 09:40:58;;;;;;;17.00;10.00;;;6.60;99.80;;;;;;4941377;28;20281;-86
2020/12/18 09:43:25;;;;;;;15.35;8.57;;;6.60;99.80;;;;;;4939492;28;20361;-86
2020/12/18 09:45:57;;;;;;;12.85;8.30;;;6.60;99.80;;;;;;4936366;28;20237;-85
2020/12/18 09:48:26;;;;;;;13.25;9.25;;;6.60;99.80;;;;;;4931982;28;20324;-86
2020/12/18 09:50:56;;;;;;;13.23;9.25;;;6.50;99.80;;;;;;4941277;28;20740;-87
2020/12/18 09:53:23;;;;;;;16.77;10.55;;;6.60;99.80;;;;;;4962117;28;20257;-86
2020/12/18 09:55:51;;;;;;;17.67;9.73;;;6.60;99.80;;;;;;4963429;28;20231;-85
2020/12/18 09:58:18;;;;;;;17.90;9.38;;;6.60;99.80;;;;;;4972481;28;20748;-85
2020/12/18 10:00:45;;;;;;;20.35;9.95;;;6.70;99.80;;;;;;4972895;28;20254;-85
2020/12/18 10:03:12;;;;;;;21.92;11.02;;;6.70;99.80;;;;;;4972040;28;20766;-86
2020/12/18 10:05:39;;;;;;;16.55;10.27;;;6.70;99.80;;;;;;4970621;28;20729;-85
2020/12/18 10:08:07;;;;;;;17.50;9.98;;;6.70;99.80;;;;;;4972104;28;20236;-85
2020/12/18 10:10:34;;;;;;;24.30;12.25;;;6.70;99.80;;;;;;4970858;28;20230;-87
2020/12/18 10:13:01;;;;;;;24.05;12.80;;;6.60;99.80;;;;;;4929137;28;20290;-86
2020/12/18 10:15:28;;;;;;;34.08;14.13;;;6.70;99.80;;;;;;4932527;28;20309;-85
2020/12/18 10:17:55;;;;;;;34.95;15.00;;;6.70;99.80;;;;;;4934297;28;20281;-84
2020/12/18 10:20:22;;;;;;;35.05;16.80;;;6.70;99.80;;;;;;4948421;28;20743;-88
2020/12/18 10:22:50;;;;;;;36.78;14.52;;;6.70;99.80;;;;;;4957451;28;20226;-85
2020/12/18 10:25:18;;;;;;;38.22;15.02;;;6.70;99.80;;;;;;4972336;28;20720;-86
2020/12/18 10:27:45;;;;;;;37.20;17.00;;;6.70;99.80;;;;;;4972875;28;20235;-86
2020/12/18 10:30:13;;;;;;;37.72;15.00;;;6.80;99.80;;;;;;4972816;28;20241;-85
2020/12/18 10:32:40;;;;;;;32.55;16.15;;;6.80;99.80;;;;;;4972448;28;20784;-85
2020/12/18 10:35:08;;;;;;;38.72;15.85;;;6.90;99.80;;;;;;4972341;28;20271;-84
2020/12/18 10:37:37;;;;;;;44.67;17.48;;;6.90;99.80;;;;;;4973540;28;20250;-84
2020/12/18 10:40:05;;;;;;;33.25;15.55;;;7.00;99.80;;;;;;4946061;28;20550;-86
2020/12/18 10:42:33;;;;;;;45.47;16.08;;;7.00;99.80;;;;;;4964786;28;20297;-87
2020/12/18 10:45:00;;;;;;;43.80;15.82;;;7.10;99.80;;;;;;4941617;28;20323;-85
2020/12/18 10:47:27;;;;;;;38.03;15.82;;;7.10;99.80;;;;;;4932031;28;20258;-86
2020/12/18 10:49:56;;;;;;;42.85;15.40;;;7.20;99.80;;;;;;4924350;28;20277;-87
2020/12/18 10:52:24;;;;;;;48.72;16.08;;;7.20;99.80;;;;;;4927740;28;20239;-83
2020/12/18 10:54:52;;;;;;;39.75;15.52;;;7.30;99.80;;;;;;4937085;28;20266;-84
2020/12/18 10:57:20;;;;;;;38.65;16.00;;;7.30;99.80;;;;;;4935573;28;20288;-84
2020/12/18 10:59:48;;;;;;;56.67;16.25;;;7.30;99.80;;;;;;4921174;28;20230;-85
2020/12/18 11:02:15;;;;;;;35.63;16.63;;;7.30;99.80;;;;;;4932212;28;20294;-85
2020/12/18 11:04:43;;;;;;;29.50;16.05;;;7.30;99.80;;;;;;4930599;28;20257;-85
2020/12/18 11:07:10;;;;;;;34.17;15.68;;;7.40;99.80;;;;;;4923280;28;20259;-83
2020/12/18 11:09:39;;;;;;;42.72;17.67;;;7.40;99.80;;;;;;4964159;28;20254;-85
2020/12/18 11:12:06;;;;;;;34.03;15.60;;;7.50;99.80;;;;;;4969288;28;20310;-84
2020/12/18 11:14:34;;;;;;;38.38;15.00;;;7.60;99.80;;;;;;4960056;28;20258;-85
2020/12/18 11:17:02;;;;;;;43.30;15.32;;;7.60;99.80;;;;;;4941950;28;20765;-85
2020/12/18 11:19:29;;;;;;;49.28;15.05;;;7.70;99.80;;;;;;4936162;28;20307;-85
2020/12/18 11:21:57;;;;;;;30.98;14.50;;;7.70;99.80;;;;;;4944380;28;20782;-85
2020/12/18 11:24:24;;;;;;;50.28;14.02;;;7.70;99.80;;;;;;4965661;28;20266;-85
2020/12/18 11:26:52;;;;;;;37.10;14.75;;;7.80;99.80;;;;;;4939696;28;20318;-84
2020/12/18 11:29:21;;;;;;;50.83;14.23;;;7.80;99.80;;;;;;4934079;28;20303;-84
2020/12/18 11:31:48;;;;;;;42.85;14.95;;;7.80;99.80;;;;;;4940885;28;20668;-84
2020/12/18 11:34:20;;;;;;;47.97;14.88;;;7.80;99.80;;;;;;4944451;28;20281;-84
2020/12/18 11:36:47;;;;;;;64.43;16.13;;;7.70;99.80;;;;;;4945176;28;20744;-84
2020/12/18 11:39:15;;;;;;;34.00;15.15;;;7.70;99.80;;;;;;4974805;28;20320;-86
2020/12/18 11:41:42;;;;;;;65.75;17.23;;;7.60;99.80;;;;;;4974530;28;20265;-85
2020/12/18 11:44:11;;;;;;;56.00;15.07;;;7.60;99.80;;;;;;4975274;28;20722;-85
2020/12/18 11:46:38;;;;;;;38.95;15.88;;;7.50;99.80;;;;;;4974102;28;20771;-85
2020/12/18 11:49:05;;;;;;;58.17;16.05;;;7.50;99.80;;;;;;4974301;28;20644;-84
2020/12/18 11:51:37;;;;;;;34.35;15.15;;;7.50;99.80;;;;;;4975109;28;20235;-84
2020/12/18 11:54:04;;;;;;;46.05;16.98;;;7.40;99.80;;;;;;4972992;28;20647;-85
2020/12/18 11:56:31;;;;;;;50.40;16.92;;;7.50;99.80;;;;;;4962659;28;20300;-83
2020/12/18 11:58:58;;;;;;;41.95;15.90;;;7.50;99.80;;;;;;4958596;28;20270;-84
2020/12/18 12:01:28;;;;;;;50.28;17.98;;;7.40;99.80;;;;;;4927227;28;20232;-84
2020/12/18 12:03:56;;;;;;;34.83;16.10;;;7.40;99.80;;;;;;4921008;28;20261;-84
2020/12/18 12:06:23;;;;;;;43.85;16.70;;;7.40;99.80;;;;;;4943851;28;20552;-88
2020/12/18 12:08:51;;;;;;;46.92;17.08;;;7.50;99.80;;;;;;4967808;28;20236;-88
2020/12/18 12:11:18;;;;;;;34.47;16.55;;;7.60;99.80;;;;;;4968783;28;20238;-88
2020/12/18 12:13:46;;;;;;;41.17;17.70;;;7.60;99.80;;;;;;4968737;28;20781;-86
2020/12/18 12:16:14;;;;;;;42.90;17.63;;;7.70;99.80;;;;;;4968782;28;20470;-86
2020/12/18 12:18:42;;;;;;;51.72;19.67;;;7.50;99.80;;;;;;4968993;28;20242;-86
2020/12/18 12:21:09;;;;;;;40.40;17.65;;;7.50;99.80;;;;;;4959850;28;20259;-86
2020/12/18 12:23:37;;;;;;;70.03;20.03;;;7.50;99.80;;;;;;4962748;28;20751;-88
2020/12/18 12:26:05;;;;;;;58.63;20.65;;;7.40;99.80;;;;;;4969043;28;20478;-88
2020/12/18 12:28:32;;;;;;;76.93;21.70;;;7.30;99.80;;;;;;4948228;28;20242;-88
2020/12/18 12:30:59;;;;;;;54.75;18.38;;;7.20;99.80;;;;;;4935740;28;20310;-89
2020/12/18 12:33:26;;;;;;;73.20;19.02;;;7.20;99.80;;;;;;4916235;28;20241;-88
2020/12/18 12:35:53;;;;;;;45.28;19.70;;;7.20;99.80;;;;;;4934500;28;20308;-88
2020/12/18 12:38:20;;;;;;;45.33;17.40;;;7.30;99.80;;;;;;4941267;28;20663;-88
2020/12/18 12:40:51;;;;;;;41.92;18.35;;;7.30;99.80;;;;;;4923954;28;20243;-87
2020/12/18 12:43:18;;;;;;;50.00;18.63;;;7.30;99.80;;;;;;4931099;28;20230;-88
2020/12/18 12:45:46;;;;;;;55.45;21.63;;;7.30;99.80;;;;;;4932315;28;20234;-89
2020/12/18 12:48:15;;;;;;;77.68;20.85;;;7.30;99.80;;;;;;4946567;28;20290;-89